Date,TemperatureHighF,TemperatureAvgF,TemperatureLowF,DewpointHighF,DewpointAvgF,DewpointLowF,HumidityHigh,HumidityAvg,HumidityLow,PressureMaxIn,PressureMinIn,WindSpeedMaxMPH,WindSpeedAvgMPH,GustSpeedMaxMPH,PrecipitationSumIn
2013-8-2,75.6,64.3,52.0,52.4,49.6,47.6,98,62,39,29.94,29.84,5,1,0,0.00
2013-8-3,76.3,61.6,46.9,56.4,49.4,44.1,98,69,33,30.12,29.94,8,1,0,0.00
2013-8-4,80.6,62.6,44.1,53.5,45.9,39.7,98,63,25,30.21,30.07,6,1,0,0.00
2013-8-5,69.4,62.0,59.7,65.7,56.7,-99.9,98,91,78,29.90,29.78,7,-34,0,1.27
2013-8-6,79.5,67.9,60.6,65.4,60.1,54.8,98,79,43,29.81,29.68,7,2,0,0.00
2013-8-7,73.2,66.3,51.3,62.0,52.7,42.6,98,64,34,29.95,29.76,8,2,0,0.00
2013-8-8,81.1,62.7,44.4,58.8,50.2,43.9,98,70,30,30.01,29.93,6,1,0,0.00
2013-8-9,79.2,65.1,56.1,59.3,51.9,45.0,98,68,32,30.03,29.90,9,2,0,0.01
2013-8-10,76.6,62.9,52.3,57.0,53.2,49.8,98,75,39,30.12,30.03,6,1,0,0.00
2013-8-11,84.6,63.3,46.6,57.9,52.4,46.1,98,74,30,30.08,29.96,5,1,0,0.00
2013-8-12,77.2,60.4,49.8,58.2,52.8,43.9,98,79,45,30.01,29.90,6,1,0,0.00
2013-8-13,69.8,55.4,42.3,52.4,44.8,41.6,98,72,39,30.14,30.01,8,2,0,0.00
2013-8-14,75.2,54.5,37.4,53.9,44.1,36.9,98,74,32,30.19,30.07,5,1,0,0.00
2013-8-15,84.7,62.6,44.2,56.1,48.7,43.7,98,69,25,30.09,30.02,9,1,0,0.00
2013-8-16,87.8,66.9,46.4,59.7,51.9,42.3,98,68,22,30.15,30.07,7,1,0,0.00
2013-8-17,86.0,67.8,50.4,62.4,53.5,49.2,98,68,29,30.21,30.10,7,1,0,0.00
2013-8-18,85.6,67.4,49.6,59.2,53.9,49.1,98,68,33,30.16,30.01,10,2,0,0.00
2013-8-19,85.1,68.4,53.8,66.7,59.6,53.2,98,77,46,30.02,29.91,11,3,0,0.00
2013-8-20,90.1,74.4,60.3,67.0,64.2,59.7,98,74,43,29.97,29.88,9,2,0,0.00
2013-8-21,91.0,75.4,61.9,70.2,67.1,61.3,98,78,50,29.97,29.81,8,2,0,0.00
2013-8-22,88.3,71.0,57.2,64.5,51.8,32.8,98,61,14,30.12,29.96,6,1,0,0.00
2013-8-23,84.9,67.1,48.2,58.8,52.9,47.2,98,66,33,30.18,30.08,8,2,0,0.00
2013-8-24,84.9,70.8,53.8,65.6,57.5,52.1,98,67,40,30.19,30.02,10,3,0,0.00
2013-8-25,96.4,81.6,70.3,71.4,69.0,66.2,98,69,40,30.04,29.94,12,5,0,0.00
2013-8-26,89.2,78.3,66.2,77.2,71.4,65.6,98,81,56,30.00,29.90,8,2,0,0.00
2013-8-27,86.2,77.9,70.2,78.9,74.2,69.6,98,89,68,29.87,29.79,4,1,0,0.00
2013-8-28,89.2,75.1,64.8,71.7,64.7,55.1,98,75,34,30.02,29.87,5,1,0,0.00
2013-8-29,72.1,66.1,62.6,71.5,65.5,62.0,98,98,98,30.06,30.01,3,0,0,0.00
2013-8-31,89.6,78.1,63.9,66.3,62.1,57.9,98,62,36,29.83,29.73,6,2,0,0.00